sensor_id;sensor_type;location;lat;lon;timestamp;P1;durP1;ratioP1;P2;durP2;ratioP2
24897;SDS011;12957;49.434;8.684;2024-02-26T00:02:15;2.30;;;1.50;;
24897;SDS011;12957;49.434;8.684;2024-02-26T00:04:40;1.98;;;1.40;;
24897;SDS011;12957;49.434;8.684;2024-02-26T00:07:06;1.70;;;1.60;;
24897;SDS011;12957;49.434;8.684;2024-02-26T00:09:32;2.65;;;1.60;;
24897;SDS011;12957;49.434;8.684;2024-02-26T00:12:00;1.55;;;1.20;;
24897;SDS011;12957;49.434;8.684;2024-02-26T00:14:26;1.50;;;1.40;;
24897;SDS011;12957;49.434;8.684;2024-02-26T00:16:52;1.85;;;1.35;;
24897;SDS011;12957;49.434;8.684;2024-02-26T00:19:17;1.58;;;1.25;;
24897;SDS011;12957;49.434;8.684;2024-02-26T00:21:43;1.92;;;1.40;;
24897;SDS011;12957;49.434;8.684;2024-02-26T00:24:08;3.38;;;1.50;;
24897;SDS011;12957;49.434;8.684;2024-02-26T00:26:34;1.52;;;1.13;;
24897;SDS011;12957;49.434;8.684;2024-02-26T00:28:59;1.40;;;1.30;;
24897;SDS011;12957;49.434;8.684;2024-02-26T00:31:25;1.50;;;1.40;;
24897;SDS011;12957;49.434;8.684;2024-02-26T00:33:50;1.35;;;1.30;;
24897;SDS011;12957;49.434;8.684;2024-02-26T00:36:15;2.65;;;1.40;;
24897;SDS011;12957;49.434;8.684;2024-02-26T00:38:41;1.63;;;1.30;;
24897;SDS011;12957;49.434;8.684;2024-02-26T00:41:08;1.40;;;1.30;;
24897;SDS011;12957;49.434;8.684;2024-02-26T00:43:33;1.92;;;1.80;;
24897;SDS011;12957;49.434;8.684;2024-02-26T00:45:59;1.25;;;1.15;;
24897;SDS011;12957;49.434;8.684;2024-02-26T00:48:24;1.77;;;1.30;;
24897;SDS011;12957;49.434;8.684;2024-02-26T00:50:50;1.45;;;1.35;;
24897;SDS011;12957;49.434;8.684;2024-02-26T00:53:16;2.63;;;1.20;;
24897;SDS011;12957;49.434;8.684;2024-02-26T00:55:42;4.28;;;1.48;;
24897;SDS011;12957;49.434;8.684;2024-02-26T00:58:07;5.15;;;1.30;;
24897;SDS011;12957;49.434;8.684;2024-02-26T01:00:33;1.10;;;1.10;;
24897;SDS011;12957;49.434;8.684;2024-02-26T01:02:58;1.50;;;1.40;;
24897;SDS011;12957;49.434;8.684;2024-02-26T01:05:24;1.27;;;1.23;;
24897;SDS011;12957;49.434;8.684;2024-02-26T01:07:50;1.15;;;1.13;;
24897;SDS011;12957;49.434;8.684;2024-02-26T01:10:15;1.80;;;1.20;;
24897;SDS011;12957;49.434;8.684;2024-02-26T01:12:41;1.40;;;1.30;;
24897;SDS011;12957;49.434;8.684;2024-02-26T01:15:07;1.35;;;1.25;;
24897;SDS011;12957;49.434;8.684;2024-02-26T01:17:33;1.40;;;1.23;;
24897;SDS011;12957;49.434;8.684;2024-02-26T01:19:58;1.30;;;1.20;;
24897;SDS011;12957;49.434;8.684;2024-02-26T01:22:24;1.55;;;1.38;;
24897;SDS011;12957;49.434;8.684;2024-02-26T01:24:49;1.20;;;1.10;;
24897;SDS011;12957;49.434;8.684;2024-02-26T01:27:15;2.28;;;1.33;;
24897;SDS011;12957;49.434;8.684;2024-02-26T01:29:41;1.40;;;1.30;;
24897;SDS011;12957;49.434;8.684;2024-02-26T01:32:06;1.50;;;1.40;;
24897;SDS011;12957;49.434;8.684;2024-02-26T01:34:32;1.40;;;1.30;;
24897;SDS011;12957;49.434;8.684;2024-02-26T01:36:58;2.58;;;1.48;;
24897;SDS011;12957;49.434;8.684;2024-02-26T01:39:23;0.98;;;0.98;;
24897;SDS011;12957;49.434;8.684;2024-02-26T01:41:49;1.30;;;1.20;;
24897;SDS011;12957;49.434;8.684;2024-02-26T01:44:14;2.22;;;1.30;;
24897;SDS011;12957;49.434;8.684;2024-02-26T01:46:40;1.17;;;1.17;;
24897;SDS011;12957;49.434;8.684;2024-02-26T01:49:05;0.95;;;0.95;;
24897;SDS011;12957;49.434;8.684;2024-02-26T01:51:32;1.40;;;1.30;;
24897;SDS011;12957;49.434;8.684;2024-02-26T01:53:59;1.10;;;1.10;;
24897;SDS011;12957;49.434;8.684;2024-02-26T01:56:25;1.20;;;1.20;;
24897;SDS011;12957;49.434;8.684;2024-02-26T01:58:55;1.15;;;1.15;;
24897;SDS011;12957;49.434;8.684;2024-02-26T02:01:21;1.50;;;1.40;;
24897;SDS011;12957;49.434;8.684;2024-02-26T02:03:47;1.42;;;1.33;;
24897;SDS011;12957;49.434;8.684;2024-02-26T02:06:13;1.70;;;1.10;;
24897;SDS011;12957;49.434;8.684;2024-02-26T02:08:39;1.00;;;1.00;;
24897;SDS011;12957;49.434;8.684;2024-02-26T02:11:04;1.52;;;1.38;;
24897;SDS011;12957;49.434;8.684;2024-02-26T02:13:31;0.90;;;0.90;;
24897;SDS011;12957;49.434;8.684;2024-02-26T02:15:56;1.20;;;1.20;;
24897;SDS011;12957;49.434;8.684;2024-02-26T02:18:21;1.30;;;1.20;;
24897;SDS011;12957;49.434;8.684;2024-02-26T02:20:47;1.63;;;1.10;;
24897;SDS011;12957;49.434;8.684;2024-02-26T02:23:12;1.92;;;1.10;;
24897;SDS011;12957;49.434;8.684;2024-02-26T02:25:39;2.83;;;0.88;;
24897;SDS011;12957;49.434;8.684;2024-02-26T02:28:04;1.10;;;1.10;;
24897;SDS011;12957;49.434;8.684;2024-02-26T02:30:30;1.15;;;1.15;;
24897;SDS011;12957;49.434;8.684;2024-02-26T02:32:58;2.00;;;1.05;;
24897;SDS011;12957;49.434;8.684;2024-02-26T02:35:24;1.20;;;1.10;;
24897;SDS011;12957;49.434;8.684;2024-02-26T02:37:51;3.22;;;0.90;;
24897;SDS011;12957;49.434;8.684;2024-02-26T02:40:17;1.02;;;0.90;;
24897;SDS011;12957;49.434;8.684;2024-02-26T02:42:42;1.00;;;1.00;;
24897;SDS011;12957;49.434;8.684;2024-02-26T02:45:08;1.10;;;1.00;;
24897;SDS011;12957;49.434;8.684;2024-02-26T02:47:37;1.00;;;1.00;;
24897;SDS011;12957;49.434;8.684;2024-02-26T02:50:03;1.38;;;1.27;;
24897;SDS011;12957;49.434;8.684;2024-02-26T02:52:28;1.10;;;1.05;;
24897;SDS011;12957;49.434;8.684;2024-02-26T02:54:54;2.45;;;0.93;;
24897;SDS011;12957;49.434;8.684;2024-02-26T02:57:19;1.30;;;1.20;;
24897;SDS011;12957;49.434;8.684;2024-02-26T02:59:45;1.20;;;1.20;;
24897;SDS011;12957;49.434;8.684;2024-02-26T03:02:11;2.22;;;1.20;;
24897;SDS011;12957;49.434;8.684;2024-02-26T03:04:37;1.00;;;1.00;;
24897;SDS011;12957;49.434;8.684;2024-02-26T03:07:02;1.20;;;1.20;;
24897;SDS011;12957;49.434;8.684;2024-02-26T03:09:28;1.95;;;1.40;;
24897;SDS011;12957;49.434;8.684;2024-02-26T03:11:53;1.02;;;0.93;;
24897;SDS011;12957;49.434;8.684;2024-02-26T03:14:19;0.90;;;0.90;;
24897;SDS011;12957;49.434;8.684;2024-02-26T03:16:44;0.95;;;0.93;;
24897;SDS011;12957;49.434;8.684;2024-02-26T03:19:10;1.20;;;1.00;;
24897;SDS011;12957;49.434;8.684;2024-02-26T03:21:35;1.27;;;1.17;;
24897;SDS011;12957;49.434;8.684;2024-02-26T03:24:01;2.95;;;1.10;;
24897;SDS011;12957;49.434;8.684;2024-02-26T03:26:26;2.78;;;1.17;;
24897;SDS011;12957;49.434;8.684;2024-02-26T03:28:52;1.25;;;1.23;;
24897;SDS011;12957;49.434;8.684;2024-02-26T03:31:18;0.90;;;0.90;;
24897;SDS011;12957;49.434;8.684;2024-02-26T03:33:44;1.20;;;1.20;;
24897;SDS011;12957;49.434;8.684;2024-02-26T03:36:09;1.23;;;1.13;;
24897;SDS011;12957;49.434;8.684;2024-02-26T03:38:35;0.93;;;0.90;;
24897;SDS011;12957;49.434;8.684;2024-02-26T03:41:00;1.38;;;1.15;;
24897;SDS011;12957;49.434;8.684;2024-02-26T03:43:26;1.48;;;0.90;;
24897;SDS011;12957;49.434;8.684;2024-02-26T03:45:51;1.48;;;1.00;;
24897;SDS011;12957;49.434;8.684;2024-02-26T03:48:16;2.92;;;1.30;;
24897;SDS011;12957;49.434;8.684;2024-02-26T03:50:42;0.80;;;0.80;;
24897;SDS011;12957;49.434;8.684;2024-02-26T03:53:07;1.42;;;0.90;;
24897;SDS011;12957;49.434;8.684;2024-02-26T03:55:34;1.05;;;0.88;;
24897;SDS011;12957;49.434;8.684;2024-02-26T03:58:00;1.17;;;1.17;;
24897;SDS011;12957;49.434;8.684;2024-02-26T04:00:25;1.15;;;1.10;;
24897;SDS011;12957;49.434;8.684;2024-02-26T04:02:51;1.10;;;1.10;;
24897;SDS011;12957;49.434;8.684;2024-02-26T04:05:16;1.17;;;1.10;;
24897;SDS011;12957;49.434;8.684;2024-02-26T04:07:42;1.40;;;1.10;;
24897;SDS011;12957;49.434;8.684;2024-02-26T04:10:10;1.13;;;1.05;;
24897;SDS011;12957;49.434;8.684;2024-02-26T04:12:38;1.73;;;1.10;;
24897;SDS011;12957;49.434;8.684;2024-02-26T04:15:09;1.23;;;1.20;;
24897;SDS011;12957;49.434;8.684;2024-02-26T04:17:36;0.98;;;0.93;;
24897;SDS011;12957;49.434;8.684;2024-02-26T04:20:01;1.90;;;1.05;;
24897;SDS011;12957;49.434;8.684;2024-02-26T04:22:27;1.45;;;0.93;;
24897;SDS011;12957;49.434;8.684;2024-02-26T04:24:53;1.05;;;1.00;;
24897;SDS011;12957;49.434;8.684;2024-02-26T04:27:18;1.00;;;1.00;;
24897;SDS011;12957;49.434;8.684;2024-02-26T04:29:44;0.90;;;0.90;;
24897;SDS011;12957;49.434;8.684;2024-02-26T04:32:09;1.88;;;1.35;;
24897;SDS011;12957;49.434;8.684;2024-02-26T04:34:35;2.05;;;1.17;;
24897;SDS011;12957;49.434;8.684;2024-02-26T04:37:00;1.20;;;1.10;;
24897;SDS011;12957;49.434;8.684;2024-02-26T04:39:26;1.87;;;1.00;;
24897;SDS011;12957;49.434;8.684;2024-02-26T04:41:51;1.13;;;1.10;;
24897;SDS011;12957;49.434;8.684;2024-02-26T04:44:17;1.67;;;1.00;;
24897;SDS011;12957;49.434;8.684;2024-02-26T04:46:42;4.50;;;1.00;;
24897;SDS011;12957;49.434;8.684;2024-02-26T04:49:08;1.48;;;1.10;;
24897;SDS011;12957;49.434;8.684;2024-02-26T04:51:34;1.10;;;1.10;;
24897;SDS011;12957;49.434;8.684;2024-02-26T04:53:59;1.10;;;1.10;;
24897;SDS011;12957;49.434;8.684;2024-02-26T04:56:25;1.95;;;1.13;;
24897;SDS011;12957;49.434;8.684;2024-02-26T04:58:50;1.00;;;1.00;;
24897;SDS011;12957;49.434;8.684;2024-02-26T05:01:16;1.67;;;1.00;;
24897;SDS011;12957;49.434;8.684;2024-02-26T05:03:42;0.90;;;0.90;;
24897;SDS011;12957;49.434;8.684;2024-02-26T05:06:08;0.70;;;0.70;;
24897;SDS011;12957;49.434;8.684;2024-02-26T05:08:34;1.08;;;0.73;;
24897;SDS011;12957;49.434;8.684;2024-02-26T05:11:00;0.88;;;0.88;;
24897;SDS011;12957;49.434;8.684;2024-02-26T05:13:27;1.43;;;0.70;;
24897;SDS011;12957;49.434;8.684;2024-02-26T05:15:53;0.68;;;0.68;;
24897;SDS011;12957;49.434;8.684;2024-02-26T05:18:19;0.70;;;0.70;;
24897;SDS011;12957;49.434;8.684;2024-02-26T05:20:44;0.70;;;0.70;;
24897;SDS011;12957;49.434;8.684;2024-02-26T05:23:10;1.10;;;0.73;;
24897;SDS011;12957;49.434;8.684;2024-02-26T05:25:35;0.90;;;0.90;;
24897;SDS011;12957;49.434;8.684;2024-02-26T05:28:01;0.75;;;0.75;;
24897;SDS011;12957;49.434;8.684;2024-02-26T05:30:26;0.60;;;0.60;;
24897;SDS011;12957;49.434;8.684;2024-02-26T05:32:53;0.80;;;0.80;;
24897;SDS011;12957;49.434;8.684;2024-02-26T05:35:19;1.95;;;0.65;;
24897;SDS011;12957;49.434;8.684;2024-02-26T05:37:44;0.70;;;0.70;;
24897;SDS011;12957;49.434;8.684;2024-02-26T05:40:10;1.05;;;0.70;;
24897;SDS011;12957;49.434;8.684;2024-02-26T05:42:36;1.27;;;0.80;;
24897;SDS011;12957;49.434;8.684;2024-02-26T05:45:01;1.75;;;0.80;;
24897;SDS011;12957;49.434;8.684;2024-02-26T05:47:32;0.80;;;0.80;;
24897;SDS011;12957;49.434;8.684;2024-02-26T05:49:57;0.90;;;0.90;;
24897;SDS011;12957;49.434;8.684;2024-02-26T05:52:24;2.08;;;1.00;;
24897;SDS011;12957;49.434;8.684;2024-02-26T05:54:50;0.80;;;0.80;;
24897;SDS011;12957;49.434;8.684;2024-02-26T05:57:15;0.88;;;0.80;;
24897;SDS011;12957;49.434;8.684;2024-02-26T05:59:40;0.95;;;0.90;;
24897;SDS011;12957;49.434;8.684;2024-02-26T06:02:06;0.90;;;0.90;;
24897;SDS011;12957;49.434;8.684;2024-02-26T06:04:31;2.47;;;0.90;;
24897;SDS011;12957;49.434;8.684;2024-02-26T06:06:57;1.63;;;0.85;;
24897;SDS011;12957;49.434;8.684;2024-02-26T06:09:22;1.10;;;1.10;;
24897;SDS011;12957;49.434;8.684;2024-02-26T06:11:48;0.98;;;0.98;;
24897;SDS011;12957;49.434;8.684;2024-02-26T06:14:13;1.60;;;0.97;;
24897;SDS011;12957;49.434;8.684;2024-02-26T06:16:43;0.98;;;0.98;;
24897;SDS011;12957;49.434;8.684;2024-02-26T06:19:08;2.10;;;1.10;;
24897;SDS011;12957;49.434;8.684;2024-02-26T06:21:34;1.00;;;1.00;;
24897;SDS011;12957;49.434;8.684;2024-02-26T06:24:00;1.20;;;1.10;;
24897;SDS011;12957;49.434;8.684;2024-02-26T06:26:26;0.82;;;0.82;;
24897;SDS011;12957;49.434;8.684;2024-02-26T06:28:53;0.82;;;0.82;;
24897;SDS011;12957;49.434;8.684;2024-02-26T06:31:19;0.90;;;0.90;;
24897;SDS011;12957;49.434;8.684;2024-02-26T06:33:47;0.80;;;0.80;;
24897;SDS011;12957;49.434;8.684;2024-02-26T06:36:12;1.00;;;0.95;;
24897;SDS011;12957;49.434;8.684;2024-02-26T06:38:38;1.00;;;1.00;;
24897;SDS011;12957;49.434;8.684;2024-02-26T06:41:03;1.10;;;1.10;;
24897;SDS011;12957;49.434;8.684;2024-02-26T06:43:29;1.05;;;1.05;;
24897;SDS011;12957;49.434;8.684;2024-02-26T06:45:54;1.00;;;1.00;;
24897;SDS011;12957;49.434;8.684;2024-02-26T06:48:20;0.80;;;0.80;;
24897;SDS011;12957;49.434;8.684;2024-02-26T06:50:45;1.00;;;1.00;;
24897;SDS011;12957;49.434;8.684;2024-02-26T06:53:11;1.80;;;1.17;;
24897;SDS011;12957;49.434;8.684;2024-02-26T06:55:36;0.80;;;0.80;;
24897;SDS011;12957;49.434;8.684;2024-02-26T06:58:05;0.90;;;0.90;;
24897;SDS011;12957;49.434;8.684;2024-02-26T07:00:30;3.50;;;1.02;;
24897;SDS011;12957;49.434;8.684;2024-02-26T07:02:56;0.98;;;0.98;;
24897;SDS011;12957;49.434;8.684;2024-02-26T07:05:21;1.13;;;1.00;;
24897;SDS011;12957;49.434;8.684;2024-02-26T07:07:47;2.60;;;1.15;;
24897;SDS011;12957;49.434;8.684;2024-02-26T07:10:12;1.02;;;1.00;;
24897;SDS011;12957;49.434;8.684;2024-02-26T07:12:38;0.98;;;0.98;;
24897;SDS011;12957;49.434;8.684;2024-02-26T07:15:04;0.90;;;0.90;;
24897;SDS011;12957;49.434;8.684;2024-02-26T07:17:32;0.70;;;0.70;;
24897;SDS011;12957;49.434;8.684;2024-02-26T07:19:59;1.40;;;1.10;;
24897;SDS011;12957;49.434;8.684;2024-02-26T07:22:24;2.17;;;1.50;;
24897;SDS011;12957;49.434;8.684;2024-02-26T07:24:50;0.95;;;0.95;;
24897;SDS011;12957;49.434;8.684;2024-02-26T07:27:16;2.33;;;1.30;;
24897;SDS011;12957;49.434;8.684;2024-02-26T07:29:42;3.47;;;1.20;;
24897;SDS011;12957;49.434;8.684;2024-02-26T07:32:08;2.25;;;1.38;;
24897;SDS011;12957;49.434;8.684;2024-02-26T07:34:34;1.30;;;1.20;;
24897;SDS011;12957;49.434;8.684;2024-02-26T07:37:00;1.35;;;1.25;;
24897;SDS011;12957;49.434;8.684;2024-02-26T07:39:25;1.10;;;1.10;;
24897;SDS011;12957;49.434;8.684;2024-02-26T07:41:51;1.48;;;1.10;;
24897;SDS011;12957;49.434;8.684;2024-02-26T07:44:18;1.02;;;1.02;;
24897;SDS011;12957;49.434;8.684;2024-02-26T07:46:43;1.00;;;1.00;;
24897;SDS011;12957;49.434;8.684;2024-02-26T07:49:09;1.00;;;1.00;;
24897;SDS011;12957;49.434;8.684;2024-02-26T07:51:34;1.27;;;1.20;;
24897;SDS011;12957;49.434;8.684;2024-02-26T07:54:00;1.27;;;1.17;;
24897;SDS011;12957;49.434;8.684;2024-02-26T07:56:26;1.17;;;1.08;;
24897;SDS011;12957;49.434;8.684;2024-02-26T07:58:51;1.08;;;1.08;;
24897;SDS011;12957;49.434;8.684;2024-02-26T08:01:17;1.30;;;1.20;;
24897;SDS011;12957;49.434;8.684;2024-02-26T08:03:42;1.20;;;1.10;;
24897;SDS011;12957;49.434;8.684;2024-02-26T08:06:08;1.25;;;1.13;;
24897;SDS011;12957;49.434;8.684;2024-02-26T08:08:33;1.27;;;1.10;;
24897;SDS011;12957;49.434;8.684;2024-02-26T08:10:59;1.00;;;1.00;;
24897;SDS011;12957;49.434;8.684;2024-02-26T08:13:24;2.83;;;0.85;;
24897;SDS011;12957;49.434;8.684;2024-02-26T08:15:51;1.23;;;0.80;;
24897;SDS011;12957;49.434;8.684;2024-02-26T08:18:17;1.10;;;1.10;;
24897;SDS011;12957;49.434;8.684;2024-02-26T08:20:42;0.80;;;0.80;;
24897;SDS011;12957;49.434;8.684;2024-02-26T08:23:08;2.17;;;1.00;;
24897;SDS011;12957;49.434;8.684;2024-02-26T08:25:33;1.00;;;1.00;;
24897;SDS011;12957;49.434;8.684;2024-02-26T08:27:59;3.05;;;1.17;;
24897;SDS011;12957;49.434;8.684;2024-02-26T08:30:24;0.90;;;0.90;;
24897;SDS011;12957;49.434;8.684;2024-02-26T08:32:50;1.15;;;1.05;;
24897;SDS011;12957;49.434;8.684;2024-02-26T08:35:16;2.35;;;1.20;;
24897;SDS011;12957;49.434;8.684;2024-02-26T08:37:44;1.40;;;1.10;;
24897;SDS011;12957;49.434;8.684;2024-02-26T08:40:10;1.08;;;1.08;;
24897;SDS011;12957;49.434;8.684;2024-02-26T08:42:36;1.17;;;1.17;;
24897;SDS011;12957;49.434;8.684;2024-02-26T08:45:02;1.48;;;1.30;;
24897;SDS011;12957;49.434;8.684;2024-02-26T08:47:28;1.52;;;1.20;;
24897;SDS011;12957;49.434;8.684;2024-02-26T08:49:53;1.58;;;1.17;;
24897;SDS011;12957;49.434;8.684;2024-02-26T08:52:19;1.35;;;1.25;;
24897;SDS011;12957;49.434;8.684;2024-02-26T08:54:45;0.90;;;0.90;;
24897;SDS011;12957;49.434;8.684;2024-02-26T08:57:10;0.90;;;0.90;;
24897;SDS011;12957;49.434;8.684;2024-02-26T08:59:36;1.77;;;1.13;;
24897;SDS011;12957;49.434;8.684;2024-02-26T09:02:01;1.13;;;1.02;;
24897;SDS011;12957;49.434;8.684;2024-02-26T09:04:27;1.15;;;1.05;;
24897;SDS011;12957;49.434;8.684;2024-02-26T09:06:53;1.00;;;1.00;;
24897;SDS011;12957;49.434;8.684;2024-02-26T09:09:18;2.22;;;1.20;;
24897;SDS011;12957;49.434;8.684;2024-02-26T09:11:44;0.93;;;0.93;;
24897;SDS011;12957;49.434;8.684;2024-02-26T09:14:10;1.00;;;1.00;;
24897;SDS011;12957;49.434;8.684;2024-02-26T09:16:35;1.52;;;1.00;;
24897;SDS011;12957;49.434;8.684;2024-02-26T09:19:01;1.30;;;1.30;;
24897;SDS011;12957;49.434;8.684;2024-02-26T09:21:28;1.15;;;1.00;;
24897;SDS011;12957;49.434;8.684;2024-02-26T09:23:53;0.98;;;0.98;;
24897;SDS011;12957;49.434;8.684;2024-02-26T09:26:19;3.13;;;1.42;;
24897;SDS011;12957;49.434;8.684;2024-02-26T09:28:44;1.63;;;1.10;;
24897;SDS011;12957;49.434;8.684;2024-02-26T09:31:10;0.90;;;0.90;;
24897;SDS011;12957;49.434;8.684;2024-02-26T09:33:36;1.27;;;1.17;;
24897;SDS011;12957;49.434;8.684;2024-02-26T09:36:02;2.55;;;1.17;;
24897;SDS011;12957;49.434;8.684;2024-02-26T09:38:28;1.38;;;1.23;;
24897;SDS011;12957;49.434;8.684;2024-02-26T09:40:56;2.78;;;1.20;;
24897;SDS011;12957;49.434;8.684;2024-02-26T09:43:22;1.27;;;1.27;;
24897;SDS011;12957;49.434;8.684;2024-02-26T09:45:51;1.10;;;1.10;;
24897;SDS011;12957;49.434;8.684;2024-02-26T09:48:18;1.30;;;1.20;;
24897;SDS011;12957;49.434;8.684;2024-02-26T09:50:43;1.38;;;1.30;;
24897;SDS011;12957;49.434;8.684;2024-02-26T09:53:12;1.73;;;1.13;;
24897;SDS011;12957;49.434;8.684;2024-02-26T09:55:39;1.27;;;1.15;;
24897;SDS011;12957;49.434;8.684;2024-02-26T09:58:05;1.10;;;1.08;;
24897;SDS011;12957;49.434;8.684;2024-02-26T10:00:31;3.50;;;1.48;;
24897;SDS011;12957;49.434;8.684;2024-02-26T10:03:06;1.35;;;1.25;;
24897;SDS011;12957;49.434;8.684;2024-02-26T10:05:34;0.93;;;0.93;;
24897;SDS011;12957;49.434;8.684;2024-02-26T10:08:00;1.30;;;1.23;;
24897;SDS011;12957;49.434;8.684;2024-02-26T10:10:28;0.98;;;0.98;;
24897;SDS011;12957;49.434;8.684;2024-02-26T10:12:54;1.08;;;1.08;;
24897;SDS011;12957;49.434;8.684;2024-02-26T10:15:19;0.88;;;0.88;;
24897;SDS011;12957;49.434;8.684;2024-02-26T10:17:45;1.30;;;1.13;;
24897;SDS011;12957;49.434;8.684;2024-02-26T10:20:14;2.05;;;0.90;;
24897;SDS011;12957;49.434;8.684;2024-02-26T10:22:46;0.90;;;0.90;;
24897;SDS011;12957;49.434;8.684;2024-02-26T10:25:12;1.48;;;0.90;;
24897;SDS011;12957;49.434;8.684;2024-02-26T10:27:37;1.20;;;1.20;;
24897;SDS011;12957;49.434;8.684;2024-02-26T10:30:24;1.00;;;0.85;;
24897;SDS011;12957;49.434;8.684;2024-02-26T10:32:51;1.05;;;0.80;;
24897;SDS011;12957;49.434;8.684;2024-02-26T10:35:16;1.23;;;0.80;;
24897;SDS011;12957;49.434;8.684;2024-02-26T10:37:46;1.02;;;1.02;;
24897;SDS011;12957;49.434;8.684;2024-02-26T10:40:15;0.70;;;0.70;;
24897;SDS011;12957;49.434;8.684;2024-02-26T10:42:40;0.98;;;0.90;;
24897;SDS011;12957;49.434;8.684;2024-02-26T10:45:06;0.70;;;0.70;;
24897;SDS011;12957;49.434;8.684;2024-02-26T10:47:34;1.27;;;0.93;;
24897;SDS011;12957;49.434;8.684;2024-02-26T10:50:04;0.77;;;0.77;;
24897;SDS011;12957;49.434;8.684;2024-02-26T10:52:34;0.88;;;0.75;;
24897;SDS011;12957;49.434;8.684;2024-02-26T10:55:04;0.70;;;0.70;;
24897;SDS011;12957;49.434;8.684;2024-02-26T10:57:33;0.70;;;0.70;;
24897;SDS011;12957;49.434;8.684;2024-02-26T11:00:00;0.85;;;0.75;;
24897;SDS011;12957;49.434;8.684;2024-02-26T11:02:29;1.55;;;0.80;;
24897;SDS011;12957;49.434;8.684;2024-02-26T11:05:04;3.75;;;0.60;;
24897;SDS011;12957;49.434;8.684;2024-02-26T11:07:31;0.60;;;0.60;;
24897;SDS011;12957;49.434;8.684;2024-02-26T11:10:01;1.75;;;0.75;;
24897;SDS011;12957;49.434;8.684;2024-02-26T11:12:28;0.95;;;0.50;;
24897;SDS011;12957;49.434;8.684;2024-02-26T11:14:54;0.55;;;0.55;;
24897;SDS011;12957;49.434;8.684;2024-02-26T11:17:21;0.60;;;0.60;;
24897;SDS011;12957;49.434;8.684;2024-02-26T11:19:47;0.63;;;0.63;;
24897;SDS011;12957;49.434;8.684;2024-02-26T11:22:13;0.75;;;0.75;;
24897;SDS011;12957;49.434;8.684;2024-02-26T11:24:39;4.72;;;1.70;;
24897;SDS011;12957;49.434;8.684;2024-02-26T11:27:07;1.40;;;0.88;;
24897;SDS011;12957;49.434;8.684;2024-02-26T11:29:37;0.77;;;0.70;;
24897;SDS011;12957;49.434;8.684;2024-02-26T11:32:04;0.70;;;0.70;;
24897;SDS011;12957;49.434;8.684;2024-02-26T11:34:31;0.68;;;0.60;;
24897;SDS011;12957;49.434;8.684;2024-02-26T11:36:56;1.65;;;0.63;;
24897;SDS011;12957;49.434;8.684;2024-02-26T11:39:22;0.85;;;0.70;;
24897;SDS011;12957;49.434;8.684;2024-02-26T11:41:48;1.23;;;0.70;;
24897;SDS011;12957;49.434;8.684;2024-02-26T11:44:15;3.22;;;0.95;;
24897;SDS011;12957;49.434;8.684;2024-02-26T11:46:53;0.82;;;0.82;;
24897;SDS011;12957;49.434;8.684;2024-02-26T11:51:54;10.07;;;2.17;;
24897;SDS011;12957;49.434;8.684;2024-02-26T12:00:13;2.90;;;1.00;;
24897;SDS011;12957;49.434;8.684;2024-02-26T12:05:17;2.60;;;1.33;;
24897;SDS011;12957;49.434;8.684;2024-02-26T12:07:47;0.73;;;0.73;;
24897;SDS011;12957;49.434;8.684;2024-02-26T12:10:14;0.70;;;0.70;;
24897;SDS011;12957;49.434;8.684;2024-02-26T12:12:42;2.20;;;0.80;;
24897;SDS011;12957;49.434;8.684;2024-02-26T12:15:08;1.85;;;0.68;;
24897;SDS011;12957;49.434;8.684;2024-02-26T12:17:33;0.60;;;0.60;;
24897;SDS011;12957;49.434;8.684;2024-02-26T12:20:09;0.65;;;0.65;;
24897;SDS011;12957;49.434;8.684;2024-02-26T12:22:35;0.77;;;0.60;;
24897;SDS011;12957;49.434;8.684;2024-02-26T12:25:02;0.70;;;0.70;;
24897;SDS011;12957;49.434;8.684;2024-02-26T12:27:28;0.73;;;0.73;;
24897;SDS011;12957;49.434;8.684;2024-02-26T12:29:53;1.25;;;1.20;;
24897;SDS011;12957;49.434;8.684;2024-02-26T12:32:19;0.70;;;0.70;;
24897;SDS011;12957;49.434;8.684;2024-02-26T12:34:44;1.13;;;0.60;;
24897;SDS011;12957;49.434;8.684;2024-02-26T12:37:10;0.80;;;0.80;;
24897;SDS011;12957;49.434;8.684;2024-02-26T12:39:36;3.65;;;1.20;;
24897;SDS011;12957;49.434;8.684;2024-02-26T12:42:02;1.00;;;0.98;;
24897;SDS011;12957;49.434;8.684;2024-02-26T12:44:28;1.20;;;1.10;;
24897;SDS011;12957;49.434;8.684;2024-02-26T12:47:03;1.20;;;1.10;;
24897;SDS011;12957;49.434;8.684;2024-02-26T12:49:29;0.63;;;0.60;;
24897;SDS011;12957;49.434;8.684;2024-02-26T12:51:54;0.70;;;0.70;;
24897;SDS011;12957;49.434;8.684;2024-02-26T12:54:26;0.60;;;0.60;;
24897;SDS011;12957;49.434;8.684;2024-02-26T12:56:53;0.73;;;0.73;;
24897;SDS011;12957;49.434;8.684;2024-02-26T12:59:18;0.50;;;0.50;;
24897;SDS011;12957;49.434;8.684;2024-02-26T13:01:44;0.60;;;0.60;;
24897;SDS011;12957;49.434;8.684;2024-02-26T13:04:10;0.70;;;0.70;;
24897;SDS011;12957;49.434;8.684;2024-02-26T13:06:36;1.02;;;0.90;;
24897;SDS011;12957;49.434;8.684;2024-02-26T13:09:01;1.83;;;1.02;;
24897;SDS011;12957;49.434;8.684;2024-02-26T13:11:28;0.80;;;0.55;;
24897;SDS011;12957;49.434;8.684;2024-02-26T13:13:54;0.80;;;0.80;;
24897;SDS011;12957;49.434;8.684;2024-02-26T13:16:19;0.70;;;0.70;;
24897;SDS011;12957;49.434;8.684;2024-02-26T13:18:48;2.70;;;0.90;;
24897;SDS011;12957;49.434;8.684;2024-02-26T13:21:14;0.60;;;0.60;;
24897;SDS011;12957;49.434;8.684;2024-02-26T13:23:40;1.27;;;0.90;;
24897;SDS011;12957;49.434;8.684;2024-02-26T13:26:06;1.17;;;0.88;;
24897;SDS011;12957;49.434;8.684;2024-02-26T13:28:33;0.85;;;0.68;;
24897;SDS011;12957;49.434;8.684;2024-02-26T13:30:58;0.60;;;0.60;;
24897;SDS011;12957;49.434;8.684;2024-02-26T13:33:26;0.65;;;0.65;;
24897;SDS011;12957;49.434;8.684;2024-02-26T13:35:53;0.60;;;0.60;;
24897;SDS011;12957;49.434;8.684;2024-02-26T13:38:19;2.38;;;0.60;;
24897;SDS011;12957;49.434;8.684;2024-02-26T13:40:44;0.65;;;0.65;;
24897;SDS011;12957;49.434;8.684;2024-02-26T13:43:10;0.57;;;0.57;;
24897;SDS011;12957;49.434;8.684;2024-02-26T13:45:35;0.70;;;0.70;;
24897;SDS011;12957;49.434;8.684;2024-02-26T13:48:08;1.33;;;0.70;;
24897;SDS011;12957;49.434;8.684;2024-02-26T13:50:37;0.70;;;0.70;;
24897;SDS011;12957;49.434;8.684;2024-02-26T13:53:03;0.50;;;0.50;;
24897;SDS011;12957;49.434;8.684;2024-02-26T13:55:30;0.57;;;0.57;;
24897;SDS011;12957;49.434;8.684;2024-02-26T13:57:56;0.70;;;0.70;;
24897;SDS011;12957;49.434;8.684;2024-02-26T14:00:23;0.60;;;0.60;;
24897;SDS011;12957;49.434;8.684;2024-02-26T14:02:49;0.60;;;0.60;;
24897;SDS011;12957;49.434;8.684;2024-02-26T14:05:15;0.52;;;0.52;;
24897;SDS011;12957;49.434;8.684;2024-02-26T14:07:41;0.60;;;0.60;;
24897;SDS011;12957;49.434;8.684;2024-02-26T14:10:07;0.73;;;0.73;;
24897;SDS011;12957;49.434;8.684;2024-02-26T14:12:35;1.10;;;1.10;;
24897;SDS011;12957;49.434;8.684;2024-02-26T14:15:00;0.98;;;0.90;;
24897;SDS011;12957;49.434;8.684;2024-02-26T14:17:29;0.70;;;0.70;;
24897;SDS011;12957;49.434;8.684;2024-02-26T14:19:55;0.60;;;0.60;;
24897;SDS011;12957;49.434;8.684;2024-02-26T14:22:20;0.82;;;0.82;;
24897;SDS011;12957;49.434;8.684;2024-02-26T14:24:46;7.15;;;0.85;;
24897;SDS011;12957;49.434;8.684;2024-02-26T14:27:12;1.85;;;0.70;;
24897;SDS011;12957;49.434;8.684;2024-02-26T14:29:42;1.65;;;0.90;;
24897;SDS011;12957;49.434;8.684;2024-02-26T14:32:10;0.85;;;0.85;;
24897;SDS011;12957;49.434;8.684;2024-02-26T14:34:36;0.82;;;0.82;;
24897;SDS011;12957;49.434;8.684;2024-02-26T14:37:02;0.85;;;0.80;;
24897;SDS011;12957;49.434;8.684;2024-02-26T14:39:28;0.68;;;0.68;;
24897;SDS011;12957;49.434;8.684;2024-02-26T14:41:54;0.70;;;0.70;;
24897;SDS011;12957;49.434;8.684;2024-02-26T14:44:19;0.80;;;0.80;;
24897;SDS011;12957;49.434;8.684;2024-02-26T14:46:45;0.80;;;0.80;;
24897;SDS011;12957;49.434;8.684;2024-02-26T14:49:10;0.82;;;0.82;;
24897;SDS011;12957;49.434;8.684;2024-02-26T14:51:37;1.08;;;0.70;;
24897;SDS011;12957;49.434;8.684;2024-02-26T14:54:02;0.70;;;0.70;;